Time;durP1;ratioP1;P1;durP2;ratioP2;P2;SDS_P1;SDS_P2;PMS_P1;PMS_P2;Temp;Humidity;BMP_temperature;BMP_pressure;BME280_temperature;BME280_humidity;BME280_pressure;Samples;Min_cycle;Max_cycle;Signal;HPM_P1;HPM_P2
2022/07/30 00:01:56;;;;;;;7.68;3.40;;;;;;;15.21;100.00;95586.13;5133065;27;20043;-78
2022/07/30 00:04:23;;;;;;;5.80;3.50;;;;;;;15.29;100.00;95582.78;5132111;27;20035;-78
2022/07/30 00:06:48;;;;;;;6.55;3.50;;;;;;;15.20;100.00;95576.59;5121413;27;20046;-77
2022/07/30 00:09:14;;;;;;;6.60;3.33;;;;;;;15.21;100.00;95572.88;5124348;27;20067;-77
2022/07/30 00:11:40;;;;;;;5.95;3.30;;;;;;;15.16;100.00;95567.69;5128352;27;20035;-80
2022/07/30 00:14:05;;;;;;;5.85;3.60;;;;;;;15.16;100.00;95565.03;5099518;28;20607;-79
2022/07/30 00:16:31;;;;;;;5.57;3.45;;;;;;;15.13;100.00;95571.72;5106365;28;20035;-78
2022/07/30 00:18:56;;;;;;;5.75;3.70;;;;;;;15.13;100.00;95570.91;5122185;27;20517;-78
2022/07/30 00:21:22;;;;;;;5.22;3.10;;;;;;;15.18;100.00;95571.59;5112357;27;20031;-77
2022/07/30 00:23:47;;;;;;;6.32;3.47;;;;;;;15.15;100.00;95568.75;5131548;27;20043;-77
2022/07/30 00:26:13;;;;;;;4.85;3.17;;;;;;;15.11;100.00;95571.22;5123493;27;20039;-79
2022/07/30 00:28:38;;;;;;;4.10;3.00;;;;;;;15.19;100.00;95575.03;5117812;27;20047;-78
2022/07/30 00:31:04;;;;;;;6.35;2.83;;;;;;;15.14;100.00;95569.84;5129968;27;20036;-77
2022/07/30 00:33:29;;;;;;;8.68;3.38;;;;;;;15.11;100.00;95570.44;5129921;27;20046;-77
2022/07/30 00:35:54;;;;;;;4.97;3.05;;;;;;;15.17;100.00;95571.88;5132326;27;20066;-79
2022/07/30 00:38:20;;;;;;;5.50;3.22;;;;;;;15.18;100.00;95568.16;5118126;27;20713;-77
2022/07/30 00:40:46;;;;;;;5.03;3.33;;;;;;;15.15;100.00;95560.81;5127433;27;20501;-77
2022/07/30 00:43:19;;;;;;;6.75;3.40;;;;;;;15.19;100.00;95564.44;5119170;27;20554;-78
2022/07/30 00:45:45;;;;;;;5.63;3.53;;;;;;;15.12;100.00;95558.75;5124575;27;20038;-78
2022/07/30 00:48:12;;;;;;;5.32;3.50;;;;;;;15.12;100.00;95556.88;5131369;27;20832;-77
2022/07/30 00:50:38;;;;;;;7.40;3.80;;;;;;;15.14;100.00;95551.28;5119951;27;20708;-77
2022/07/30 00:53:04;;;;;;;4.18;3.13;;;;;;;15.07;100.00;95551.69;5112808;27;20039;-77
2022/07/30 00:55:30;;;;;;;7.82;3.58;;;;;;;15.12;100.00;95564.06;5120518;27;20087;-76
2022/07/30 00:57:56;;;;;;;7.72;3.63;;;;;;;15.08;100.00;95558.56;5129823;27;20121;-77
2022/07/30 01:00:22;;;;;;;7.35;3.53;;;;;;;15.05;100.00;95557.28;5129467;27;20066;-78
2022/07/30 01:02:48;;;;;;;5.22;3.30;;;;;;;15.14;100.00;95562.69;5130426;27;20035;-78
2022/07/30 01:05:13;;;;;;;6.15;3.35;;;;;;;15.18;100.00;95557.56;5132414;27;20039;-78
2022/07/30 01:07:39;;;;;;;4.82;3.22;;;;;;;15.16;100.00;95557.88;5122484;27;20039;-78
2022/07/30 01:10:06;;;;;;;5.97;3.47;;;;;;;15.24;100.00;95556.38;5132582;27;20471;-77
2022/07/30 01:12:33;;;;;;;4.97;3.10;;;;;;;15.13;100.00;95547.06;5127847;27;20035;-77
2022/07/30 01:15:01;;;;;;;4.65;3.35;;;;;;;15.14;100.00;95554.72;5118530;27;20042;-75
2022/07/30 01:17:27;;;;;;;6.68;3.33;;;;;;;15.07;100.00;95552.47;5129787;27;20527;-75
2022/07/30 01:19:57;;;;;;;5.00;3.50;;;;;;;15.06;100.00;95550.13;5120974;27;20036;-76
2022/07/30 01:22:29;;;;;;;5.10;3.70;;;;;;;15.17;100.00;95555.97;5122032;27;20043;-76
2022/07/30 01:25:22;;;;;;;5.80;3.25;;;;;;;15.20;100.00;95547.44;5115154;27;20046;-76
2022/07/30 01:27:55;;;;;;;5.97;3.80;;;;;;;15.19;100.00;95543.25;5124863;27;20520;-75
2022/07/30 01:30:23;;;;;;;6.85;3.65;;;;;;;15.13;100.00;95544.41;5116789;27;20043;-76
2022/07/30 01:32:52;;;;;;;4.53;3.45;;;;;;;15.20;100.00;95539.47;5117011;27;20049;-76
2022/07/30 01:35:20;;;;;;;6.32;3.83;;;;;;;15.20;100.00;95539.47;5130066;27;20070;-75
2022/07/30 01:37:48;;;;;;;5.03;3.40;;;;;;;15.23;100.00;95539.69;5117467;27;20043;-76
2022/07/30 01:40:13;;;;;;;4.78;3.15;;;;;;;15.24;100.00;95525.34;5125483;27;20047;-75
2022/07/30 01:42:40;;;;;;;5.95;3.60;;;;;;;15.27;100.00;95534.59;5120405;27;20058;-76
2022/07/30 01:45:08;;;;;;;4.43;3.17;;;;;;;15.23;100.00;95539.69;5126934;27;20538;-75
2022/07/30 01:47:36;;;;;;;5.38;3.40;;;;;;;15.31;100.00;95530.22;5125604;27;20112;-76
2022/07/30 01:50:05;;;;;;;8.35;3.80;;;;;;;15.24;100.00;95535.97;5108946;27;20442;-75
2022/07/30 01:52:33;;;;;;;9.55;3.53;;;;;;;15.23;100.00;95538.91;5117526;27;20044;-75
2022/07/30 01:55:00;;;;;;;5.78;3.85;;;;;;;15.19;100.00;95537.94;5120032;27;20502;-75
2022/07/30 01:57:27;;;;;;;6.65;3.58;;;;;;;15.26;100.00;95527.72;5124846;27;20047;-74
2022/07/30 02:00:00;;;;;;;5.03;3.50;;;;;;;15.20;100.00;95532.34;5107414;28;20067;-74
2022/07/30 02:02:26;;;;;;;8.52;3.80;;;;;;;15.18;100.00;95525.75;5118190;27;20039;-75
2022/07/30 02:04:52;;;;;;;6.35;3.90;;;;;;;15.15;100.00;95526.34;5109246;27;20051;-75
2022/07/30 02:07:34;;;;;;;5.00;3.72;;;;;;;15.20;100.00;95539.47;5129390;27;20071;-75
2022/07/30 02:10:09;;;;;;;5.75;3.70;;;;;;;15.23;100.00;95533.59;5129209;27;20035;-75
2022/07/30 02:12:41;;;;;;;8.02;3.90;;;;;;;15.27;100.00;95526.63;5115449;27;20492;-75
2022/07/30 02:15:14;;;;;;;5.32;3.70;;;;;;;15.27;100.00;95531.94;5100937;28;20035;-75
2022/07/30 02:18:09;;;;;;;7.90;3.92;;;;;;;15.26;100.00;95533.00;5126211;27;20119;-75
2022/07/30 02:20:34;;;;;;;4.95;3.67;;;;;;;15.24;100.00;95527.19;5119736;27;20175;-75
2022/07/30 02:23:06;;;;;;;6.10;3.95;;;;;;;15.26;100.00;95530.34;5104471;28;20039;-75
2022/07/30 02:25:34;;;;;;;7.07;3.90;;;;;;;15.28;100.00;95528.19;5129633;27;20043;-75
2022/07/30 02:28:06;;;;;;;5.38;3.63;;;;;;;15.29;100.00;95521.81;5121192;27;20085;-75
2022/07/30 02:30:35;;;;;;;5.57;3.80;;;;;;;15.28;100.00;95530.84;5124292;28;20053;-75
2022/07/30 02:33:13;;;;;;;7.07;4.07;;;;;;;15.22;100.00;95532.81;5128112;28;20047;-76
2022/07/30 02:35:39;;;;;;;5.45;3.80;;;;;;;15.27;100.00;95531.94;5114614;28;20036;-75
2022/07/30 02:38:07;;;;;;;6.13;4.10;;;;;;;15.10;100.00;95529.09;5125358;28;20048;-76
2022/07/30 02:40:34;;;;;;;6.88;4.55;;;;;;;15.11;100.00;95535.97;5102453;28;20043;-76
2022/07/30 02:43:00;;;;;;;7.82;4.30;;;;;;;15.20;100.00;95534.19;5116230;28;20036;-75
2022/07/30 02:45:28;;;;;;;5.40;4.00;;;;;;;15.28;100.00;95530.84;5121826;28;20716;-75
2022/07/30 02:48:00;;;;;;;10.95;4.43;;;;;;;15.20;100.00;95539.47;5102763;28;20060;-75
2022/07/30 02:50:28;;;;;;;6.18;3.92;;;;;;;15.24;100.00;95540.47;5123260;28;20559;-75
2022/07/30 02:52:56;;;;;;;6.03;4.47;;;;;;;15.25;100.00;95547.34;5127739;28;20084;-74
2022/07/30 02:55:25;;;;;;;5.70;4.10;;;;;;;15.32;100.00;95537.09;5124519;28;20059;-75
2022/07/30 02:57:53;;;;;;;6.13;4.55;;;;;;;15.31;100.00;95535.53;5128332;28;20054;-75
2022/07/30 03:00:20;;;;;;;6.50;4.32;;;;;;;15.32;100.00;95534.47;5119770;28;20489;-75
2022/07/30 03:02:46;;;;;;;8.98;4.80;;;;;;;15.39;100.00;95526.88;5129328;28;20057;-75
2022/07/30 03:05:13;;;;;;;7.82;4.20;;;;;;;15.38;100.00;95530.59;5128796;28;20496;-75
2022/07/30 03:07:40;;;;;;;8.95;4.55;;;;;;;15.39;100.00;95529.53;5126562;28;20035;-75
2022/07/30 03:10:06;;;;;;;6.93;4.90;;;;;;;15.39;100.00;95526.88;5122597;27;20508;-75
2022/07/30 03:12:34;;;;;;;7.00;4.65;;;;;;;15.39;100.00;95521.56;5114460;27;20095;-75
2022/07/30 03:15:01;;;;;;;6.20;4.93;;;;;;;15.39;100.00;95532.19;5129324;27;20056;-75
2022/07/30 03:17:30;;;;;;;7.60;5.28;;;;;;;15.40;100.00;95528.44;5122770;27;20046;-75
2022/07/30 03:19:59;;;;;;;7.85;5.22;;;;;;;15.44;100.00;95522.53;5126149;27;20078;-75
2022/07/30 03:22:26;;;;;;;8.25;5.05;;;;;;;15.34;100.00;95519.06;5126984;27;20152;-75
2022/07/30 03:24:53;;;;;;;8.50;5.05;;;;;;;15.34;100.00;95519.06;5128660;27;20063;-75
2022/07/30 03:27:20;;;;;;;7.95;5.10;;;;;;;15.40;100.00;95512.53;5128098;27;20039;-74
2022/07/30 03:29:47;;;;;;;6.88;4.72;;;;;;;15.39;100.00;95510.97;5125753;27;20073;-75
2022/07/30 03:32:13;;;;;;;6.70;4.70;;;;;;;15.35;100.00;95514.53;5126990;27;20043;-74
2022/07/30 03:34:40;;;;;;;9.63;5.55;;;;;;;15.26;100.00;95519.75;5105938;27;20027;-75
2022/07/30 03:37:06;;;;;;;9.70;4.85;;;;;;;15.28;100.00;95519.44;5124260;27;20047;-75
2022/07/30 03:39:33;;;;;;;8.52;5.40;;;;;;;15.33;100.00;95514.81;5124936;27;20089;-75
2022/07/30 03:41:59;;;;;;;11.15;5.47;;;;;;;15.30;100.00;95523.38;5106210;27;20036;-76
2022/07/30 03:44:25;;;;;;;7.20;5.45;;;;;;;15.27;100.00;95523.97;5130980;27;20084;-75
2022/07/30 03:46:53;;;;;;;7.63;5.82;;;;;;;15.24;100.00;95524.56;5117223;27;20035;-76
2022/07/30 03:49:20;;;;;;;7.80;5.47;;;;;;;15.31;100.00;95532.88;5103885;28;20043;-75
2022/07/30 03:51:47;;;;;;;8.18;5.15;;;;;;;15.36;100.00;95542.63;5112540;27;20047;-77
2022/07/30 03:54:14;;;;;;;11.15;5.47;;;;;;;15.37;100.00;95537.00;5124338;27;20043;-78
2022/07/30 03:56:40;;;;;;;8.77;5.45;;;;;;;15.44;100.00;95538.47;5114031;27;20035;-78
2022/07/30 03:59:06;;;;;;;7.72;5.60;;;;;;;15.38;100.00;95546.50;5120863;27;20051;-78
2022/07/30 04:01:32;;;;;;;8.43;5.80;;;;;;;15.44;100.00;95549.06;5130639;27;20154;-78
2022/07/30 04:04:08;;;;;;;9.15;5.22;;;;;;;15.44;100.00;95541.09;5109077;27;20114;-78
2022/07/30 04:06:38;;;;;;;7.95;5.57;;;;;;;15.39;100.00;95548.09;5132896;27;20039;-78
2022/07/30 04:09:08;;;;;;;10.48;5.47;;;;;;;15.46;100.00;95552.19;5115149;27;20062;-78
2022/07/30 04:11:34;;;;;;;8.25;5.53;;;;;;;15.51;100.00;95554.75;5115243;27;20031;-78
2022/07/30 04:14:00;;;;;;;8.05;5.15;;;;;;;15.52;100.00;95556.31;5130423;27;20723;-78
2022/07/30 04:16:36;;;;;;;9.50;5.40;;;;;;;15.47;100.00;95567.81;5116005;27;20050;-78
2022/07/30 04:19:07;;;;;;;8.35;5.47;;;;;;;15.45;100.00;95571.84;5126021;27;20047;-78
2022/07/30 04:21:34;;;;;;;10.35;5.95;;;;;;;15.47;100.00;95585.59;5131174;27;20085;-78
2022/07/30 04:24:00;;;;;;;8.95;5.60;;;;;;;15.54;100.00;95573.50;5130134;27;20142;-78
2022/07/30 04:26:31;;;;;;;8.48;5.68;;;;;;;15.55;100.00;95582.25;5133742;27;20055;-78
2022/07/30 04:28:58;;;;;;;10.85;5.78;;;;;;;15.53;100.00;95579.09;5109833;27;20126;-78
2022/07/30 04:31:25;;;;;;;10.77;5.80;;;;;;;15.48;100.00;95592.47;5114012;27;20062;-78
2022/07/30 04:33:50;;;;;;;10.45;6.10;;;;;;;15.58;100.00;95589.59;5106114;27;20051;-78
2022/07/30 04:36:16;;;;;;;8.30;5.40;;;;;;;15.60;100.00;95590.06;5119376;27;20047;-78
2022/07/30 04:38:41;;;;;;;7.88;5.72;;;;;;;15.57;100.00;95596.78;5118394;27;20511;-78
2022/07/30 04:41:07;;;;;;;11.55;5.28;;;;;;;15.56;100.00;95594.41;5130236;27;20439;-78
2022/07/30 04:43:32;;;;;;;6.53;5.32;;;;;;;15.68;100.00;95601.84;5126057;27;20049;-78
2022/07/30 04:45:58;;;;;;;9.13;5.47;;;;;;;15.71;100.00;95598.59;5131868;27;20407;-78
2022/07/30 04:48:25;;;;;;;7.75;5.25;;;;;;;15.73;100.00;95599.88;5134269;27;20039;-77
2022/07/30 04:50:56;;;;;;;8.40;5.55;;;;;;;15.72;100.00;95602.81;5108816;27;20122;-78
2022/07/30 04:53:22;;;;;;;8.60;5.57;;;;;;;15.69;100.00;95609.50;5119133;27;20050;-78
2022/07/30 04:55:49;;;;;;;6.82;5.20;;;;;;;15.77;100.00;95606.16;5122090;27;20047;-78
2022/07/30 04:58:18;;;;;;;7.50;5.53;;;;;;;15.82;100.00;95612.47;5123285;27;20045;-78
2022/07/30 05:00:45;;;;;;;7.88;5.18;;;;;;;15.78;100.00;95606.94;5126551;27;20039;-77
2022/07/30 05:03:13;;;;;;;11.82;5.82;;;;;;;15.81;100.00;95610.88;5123962;27;20044;-77
2022/07/30 05:05:39;;;;;;;6.93;5.00;;;;;;;15.82;100.00;95604.50;5119297;27;20035;-78
2022/07/30 05:08:06;;;;;;;6.68;4.70;;;;;;;15.82;100.00;95607.16;5129367;27;20071;-77
2022/07/30 05:10:31;;;;;;;9.13;5.13;;;;;;;15.92;100.00;95606.91;5119926;27;20671;-77
2022/07/30 05:12:57;;;;;;;8.90;5.00;;;;;;;15.90;100.00;95609.88;5121670;27;20032;-77
2022/07/30 05:15:22;;;;;;;6.97;5.30;;;;;;;15.95;100.00;95595.69;5122711;27;20047;-78
2022/07/30 05:17:48;;;;;;;10.30;5.72;;;;;;;16.00;100.00;95608.84;5111012;28;20040;-77
2022/07/30 05:20:14;;;;;;;9.20;5.03;;;;;;;16.02;100.00;95606.69;5120566;27;20042;-77
2022/07/30 05:22:39;;;;;;;7.65;5.18;;;;;;;16.03;100.00;95613.56;5124876;27;20059;-78
2022/07/30 05:25:05;;;;;;;12.02;5.25;;;;;;;16.04;100.00;95615.09;5127930;27;20042;-77
2022/07/30 05:27:30;;;;;;;7.47;5.47;;;;;;;16.06;100.00;95612.97;5116770;27;20039;-77
2022/07/30 05:29:56;;;;;;;9.82;5.10;;;;;;;16.02;100.00;95611.97;5106932;27;20110;-77
2022/07/30 05:32:21;;;;;;;11.75;5.15;;;;;;;16.13;100.00;95622.34;5129759;27;20412;-77
2022/07/30 05:34:47;;;;;;;8.57;5.07;;;;;;;16.09;100.00;95617.66;5129194;27;20043;-78
2022/07/30 05:37:12;;;;;;;9.52;5.00;;;;;;;16.08;100.00;95616.09;5130833;27;20043;-77
2022/07/30 05:39:38;;;;;;;7.13;5.00;;;;;;;16.23;100.00;95617.59;5126474;27;20047;-77
2022/07/30 05:42:03;;;;;;;7.32;5.00;;;;;;;16.24;100.00;95623.69;5099828;27;20050;-78
2022/07/30 05:44:29;;;;;;;6.80;5.07;;;;;;;16.17;100.00;95620.66;5131670;27;20074;-78
2022/07/30 05:46:54;;;;;;;8.77;5.40;;;;;;;16.32;100.00;95630.94;5131230;27;20035;-78
2022/07/30 05:49:20;;;;;;;7.53;4.93;;;;;;;16.36;100.00;95631.09;5125506;27;20054;-77
2022/07/30 05:51:45;;;;;;;10.50;5.20;;;;;;;16.41;100.00;95629.09;5130773;27;20091;-78
2022/07/30 05:54:11;;;;;;;7.90;5.00;;;;;;;16.44;100.00;95633.81;5129501;27;20047;-78
2022/07/30 05:56:36;;;;;;;6.55;4.88;;;;;;;16.50;100.00;95631.03;5105401;28;20059;-78
2022/07/30 05:59:03;;;;;;;7.03;5.00;;;;;;;16.51;100.00;95637.94;5122646;27;20047;-75
2022/07/30 06:01:28;;;;;;;8.10;5.07;;;;;;;16.52;100.00;95642.13;5124609;27;20031;-73
2022/07/30 06:03:54;;;;;;;6.35;4.88;;;;;;;16.41;100.00;95639.72;5118221;27;20060;-74
2022/07/30 06:06:19;;;;;;;6.47;5.10;;;;;;;16.40;100.00;95637.38;5123315;27;20042;-74
2022/07/30 06:08:45;;;;;;;8.25;5.15;;;;;;;16.36;100.00;95647.81;5105881;27;20051;-74
2022/07/30 06:11:10;;;;;;;6.80;5.30;;;;;;;16.39;100.00;95647.22;5121267;27;20480;-74
2022/07/30 06:13:37;;;;;;;7.22;5.20;;;;;;;16.40;100.00;95654.09;5128381;27;20039;-78
2022/07/30 06:16:03;;;;;;;11.85;5.28;;;;;;;16.54;100.00;95661.22;5100355;27;20048;-78
2022/07/30 06:18:29;;;;;;;10.45;5.03;;;;;;;16.45;100.00;95653.97;5124840;27;20039;-78
2022/07/30 06:20:54;;;;;;;6.63;5.32;;;;;;;16.62;100.00;95649.84;5123061;27;20031;-74
2022/07/30 06:23:21;;;;;;;11.80;6.20;;;;;;;16.58;100.00;95659.53;5127481;27;20123;-75
2022/07/30 06:25:47;;;;;;;9.32;5.70;;;;;;;16.53;100.00;95657.00;5127491;27;20047;-75
2022/07/30 06:28:13;;;;;;;8.60;4.93;;;;;;;16.66;100.00;95663.31;5094234;28;20039;-75
2022/07/30 06:30:39;;;;;;;9.05;4.80;;;;;;;16.62;100.00;95668.44;5105662;28;20039;-76
2022/07/30 06:33:06;;;;;;;8.80;5.65;;;;;;;16.84;100.00;95677.47;5100903;28;20043;-75
2022/07/30 06:35:32;;;;;;;8.88;5.30;;;;;;;16.87;100.00;95666.25;5116477;28;20049;-77
2022/07/30 06:37:59;;;;;;;9.90;5.30;;;;;;;16.71;100.00;95663.97;5123299;28;20058;-78
2022/07/30 06:40:24;;;;;;;8.77;5.78;;;;;;;16.83;100.00;95670.59;5097229;28;20035;-78
2022/07/30 06:42:50;;;;;;;9.55;5.28;;;;;;;16.78;100.00;95672.28;5120202;28;20055;-80
2022/07/30 06:45:16;;;;;;;11.48;5.53;;;;;;;16.74;100.00;95679.31;5114031;27;20039;-78
2022/07/30 06:47:41;;;;;;;10.82;6.10;;;;;;;16.72;100.00;95681.50;5108411;27;20032;-76
2022/07/30 06:50:08;;;;;;;13.57;5.70;;;;;;;16.82;100.00;95671.69;5124502;27;20050;-76
2022/07/30 06:52:34;;;;;;;10.40;5.85;;;;;;;16.75;100.00;95685.38;5130294;27;20642;-77
2022/07/30 06:54:59;;;;;;;8.02;6.13;;;;;;;16.70;100.00;95683.66;5098417;28;20115;-83
2022/07/30 06:57:25;;;;;;;8.65;5.88;;;;;;;16.66;100.00;95692.53;5106533;27;20151;-82
2022/07/30 06:59:50;;;;;;;9.48;5.90;;;;;;;16.61;100.00;95690.81;5132102;27;20758;-80
2022/07/30 07:02:16;;;;;;;9.38;5.95;;;;;;;16.59;100.00;95698.28;5132610;27;20049;-82
2022/07/30 07:04:41;;;;;;;8.52;6.50;;;;;;;16.59;100.00;95699.06;5112839;27;20083;-79
2022/07/30 07:07:07;;;;;;;9.15;6.85;;;;;;;16.49;100.00;95688.66;5108828;27;20039;-81
2022/07/30 07:09:32;;;;;;;12.98;6.75;;;;;;;16.51;100.00;95696.38;5110751;27;20050;-77
2022/07/30 07:11:58;;;;;;;13.18;6.55;;;;;;;16.61;100.00;95696.13;5132115;27;20071;-78
2022/07/30 07:14:24;;;;;;;10.02;6.95;;;;;;;16.67;100.00;95694.13;5109078;27;20039;-79
2022/07/30 07:16:49;;;;;;;9.73;6.70;;;;;;;16.94;100.00;95701.19;5123928;27;20043;-78
2022/07/30 07:19:15;;;;;;;11.35;7.22;;;;;;;17.12;100.00;95700.19;5107332;28;20054;-76
2022/07/30 07:21:41;;;;;;;12.65;7.40;;;;;;;17.17;100.00;95695.78;5126271;27;20165;-76
2022/07/30 07:24:07;;;;;;;10.93;7.68;;;;;;;17.22;100.00;95699.09;5126154;27;20048;-77
2022/07/30 07:26:34;;;;;;;11.93;7.95;;;;;;;17.33;100.00;95694.31;5118943;27;20035;-77
2022/07/30 07:29:00;;;;;;;13.88;8.80;;;;;;;17.30;100.00;95705.56;5126128;27;20035;-76
2022/07/30 07:31:25;;;;;;;10.40;7.80;;;;;;;17.45;100.00;95691.81;5120692;27;20043;-80
2022/07/30 07:33:53;;;;;;;13.43;7.88;;;;;;;17.47;100.00;95700.28;5122541;27;20068;-76
2022/07/30 07:36:22;;;;;;;11.98;7.03;;;;;;;17.54;100.00;95693.72;5123357;27;20043;-75
2022/07/30 07:38:48;;;;;;;12.15;7.65;;;;;;;17.57;100.00;95687.78;5119850;27;20039;-77
2022/07/30 07:41:14;;;;;;;14.90;7.82;;;;;;;17.61;100.00;95694.06;5126567;27;20043;-75
2022/07/30 07:43:40;;;;;;;10.43;7.25;;;;;;;17.83;100.00;95680.63;5124111;27;20089;-75
2022/07/30 07:46:06;;;;;;;11.00;7.20;;;;;;;18.02;100.00;95687.59;5120839;27;20056;-81
2022/07/30 07:48:31;;;;;;;12.93;7.20;;;;;;;18.08;100.00;95688.22;5118379;27;20471;-77
2022/07/30 07:50:58;;;;;;;16.70;7.25;;;;;;;18.20;100.00;95687.59;5120199;27;20050;-76
2022/07/30 07:53:23;;;;;;;12.35;6.95;;;;;;;18.24;100.00;95672.53;5126655;27;20039;-76
2022/07/30 07:55:49;;;;;;;14.48;7.15;;;;;;;18.25;100.00;95682.09;5104668;27;20175;-77
2022/07/30 07:58:15;;;;;;;12.95;7.65;;;;;;;18.18;100.00;95680.69;5121087;27;20452;-76
2022/07/30 08:00:41;;;;;;;14.43;8.18;;;;;;;18.10;100.00;95678.03;5125417;27;20130;-76
2022/07/30 08:03:06;;;;;;;10.30;7.60;;;;;;;18.16;100.00;95677.56;5131982;27;20138;-76
2022/07/30 08:05:32;;;;;;;11.95;7.05;;;;;;;18.31;100.00;95678.19;5132557;27;20035;-76
2022/07/30 08:07:58;;;;;;;11.65;7.65;;;;;;;18.35;100.00;95685.22;5128561;27;20031;-76
2022/07/30 08:10:24;;;;;;;12.18;7.38;;;;;;;18.37;100.00;95676.91;5130070;27;20046;-76
2022/07/30 08:12:49;;;;;;;10.23;6.82;;;;;;;18.38;100.00;95678.50;5120085;27;20039;-77
2022/07/30 08:15:15;;;;;;;10.70;7.10;;;;;;;18.36;100.00;95688.69;5120092;27;20043;-77
2022/07/30 08:17:45;;;;;;;13.45;7.15;;;;;;;18.60;100.00;95684.72;5118762;27;20039;-77
2022/07/30 08:20:13;;;;;;;9.75;6.88;;;;;;;18.59;100.00;95685.81;5102425;28;20043;-77
2022/07/30 08:22:39;;;;;;;10.68;6.57;;;;;;;18.57;100.00;95686.13;5131981;27;20031;-77
2022/07/30 08:25:06;;;;;;;11.50;6.40;;;;;;;18.47;100.00;95703.22;5133901;27;20045;-77
2022/07/30 08:27:32;;;;;;;8.02;6.03;;;;;;;18.50;100.00;95694.63;5115061;27;20039;-77
2022/07/30 08:29:58;;;;;;;10.15;6.47;;;;;;;18.63;100.00;95700.09;5105557;27;20682;-78
2022/07/30 08:32:23;;;;;;;10.75;5.78;;;;;;;19.10;100.00;95686.81;5095555;28;20032;-77
2022/07/30 08:34:49;;;;;;;8.10;5.32;;;;;;;19.02;100.00;95690.28;5133292;27;20035;-78
2022/07/30 08:37:15;;;;;;;8.80;5.72;;;;;;;18.95;100.00;95690.00;5133562;27;20457;-78
2022/07/30 08:39:41;;;;;;;9.13;5.50;;;;;;;19.24;100.00;95691.16;5123950;27;20085;-78
2022/07/30 08:42:07;;;;;;;8.10;5.30;;;;;;;19.25;95.66;95692.72;5130842;27;20069;-79
2022/07/30 08:44:34;;;;;;;10.70;4.85;;;;;;;19.30;94.62;95695.22;5119356;27;20035;-78
2022/07/30 08:47:01;;;;;;;9.35;5.50;;;;;;;19.60;94.87;95703.25;5113730;27;20404;-79
2022/07/30 08:49:27;;;;;;;9.18;4.82;;;;;;;19.77;90.45;95695.13;5118101;27;20042;-79
2022/07/30 08:51:53;;;;;;;8.77;4.60;;;;;;;19.73;92.50;95686.97;5128964;27;20031;-79
2022/07/30 08:54:19;;;;;;;7.53;5.10;;;;;;;19.60;95.41;95687.25;5133737;27;20039;-76
2022/07/30 08:56:45;;;;;;;9.05;5.10;;;;;;;19.68;92.89;95683.72;5131858;27;20042;-76
2022/07/30 08:59:10;;;;;;;7.15;4.95;;;;;;;19.70;90.78;95697.53;5120310;27;20051;-76
2022/07/30 09:01:36;;;;;;;9.23;5.10;;;;;;;19.61;90.67;95699.47;5129148;27;20444;-77
2022/07/30 09:04:02;;;;;;;10.18;5.20;;;;;;;19.77;89.36;95697.81;5117530;27;20036;-77
2022/07/30 09:06:28;;;;;;;7.45;5.03;;;;;;;19.89;90.36;95703.25;5123849;27;20043;-77
2022/07/30 09:08:53;;;;;;;8.90;4.95;;;;;;;19.87;93.09;95688.66;5109194;28;20042;-78
2022/07/30 09:11:19;;;;;;;7.70;5.00;;;;;;;19.79;89.63;95690.28;5114108;27;20074;-78
2022/07/30 09:13:45;;;;;;;6.88;4.95;;;;;;;19.77;90.57;95697.81;5094882;27;20047;-77
2022/07/30 09:16:25;;;;;;;10.73;4.78;;;;;;;20.00;86.50;95694.88;5116099;27;20112;-77
2022/07/30 09:18:52;;;;;;;10.05;4.50;;;;;;;20.02;84.14;95700.66;5131293;27;20048;-78
2022/07/30 09:21:27;;;;;;;6.28;4.35;;;;;;;19.96;88.71;95689.38;5120442;27;20035;-78
2022/07/30 09:24:03;;;;;;;6.22;4.45;;;;;;;20.17;88.32;95694.75;5115232;27;20039;-78
2022/07/30 09:26:30;;;;;;;5.93;4.32;;;;;;;20.45;83.84;95698.75;5136092;27;20049;-77
2022/07/30 09:29:15;;;;;;;9.60;4.53;;;;;;;20.69;78.58;95698.09;5133788;27;20066;-78
2022/07/30 09:32:03;;;;;;;9.00;4.60;;;;;;;20.78;77.98;95696.09;5125467;27;20091;-78
2022/07/30 09:34:31;;;;;;;8.15;4.00;;;;;;;20.59;75.80;95705.38;5133539;27;20480;-77
2022/07/30 09:37:02;;;;;;;6.45;4.18;;;;;;;20.65;80.15;95707.84;5128068;27;20042;-78
2022/07/30 09:39:28;;;;;;;6.38;4.50;;;;;;;20.71;73.84;95698.53;5112874;27;20047;-77
2022/07/30 09:41:55;;;;;;;5.68;4.18;;;;;;;20.71;75.63;95690.53;5128347;27;20035;-77
2022/07/30 09:44:28;;;;;;;6.72;3.83;;;;;;;20.86;76.16;95687.22;5116685;27;20055;-77
2022/07/30 09:46:55;;;;;;;7.15;4.20;;;;;;;20.91;80.36;95697.69;5112357;28;20096;-78
2022/07/30 09:49:26;;;;;;;8.27;4.15;;;;;;;21.27;72.67;95690.81;5126143;27;20039;-78
2022/07/30 09:51:53;;;;;;;7.18;4.18;;;;;;;21.29;73.75;95679.78;5123196;27;20039;-78
2022/07/30 09:54:19;;;;;;;6.32;4.03;;;;;;;21.21;74.59;95692.16;5102773;28;20050;-77
2022/07/30 09:56:47;;;;;;;9.10;4.00;;;;;;;21.08;72.69;95693.28;5109913;27;20061;-77
2022/07/30 09:59:26;;;;;;;7.57;4.20;;;;;;;20.89;70.02;95697.25;5123646;27;20497;-77
2022/07/30 10:01:52;;;;;;;5.93;3.58;;;;;;;20.93;71.96;95692.81;5114607;27;20046;-77
2022/07/30 10:04:30;;;;;;;5.25;3.50;;;;;;;21.19;71.21;95689.06;5125943;27;20039;-78
2022/07/30 10:06:57;;;;;;;7.63;3.83;;;;;;;21.38;69.88;95695.75;5104112;27;20039;-76
2022/07/30 10:09:31;;;;;;;7.68;4.00;;;;;;;21.33;71.52;95682.59;5130292;27;20035;-76
2022/07/30 10:11:59;;;;;;;7.72;3.95;;;;;;;21.52;67.16;95706.16;5117960;27;20035;-76
2022/07/30 10:14:37;;;;;;;5.50;3.67;;;;;;;21.85;70.70;95687.28;5127345;27;20110;-77
2022/07/30 10:17:04;;;;;;;7.75;3.60;;;;;;;21.60;67.98;95698.00;5111029;28;20054;-77
2022/07/30 10:19:31;;;;;;;7.07;3.70;;;;;;;21.63;67.17;95686.63;5097419;27;20505;-77
2022/07/30 10:21:57;;;;;;;8.88;3.70;;;;;;;21.95;65.53;95692.16;5130221;27;20554;-77
2022/07/30 10:24:24;;;;;;;8.27;3.55;;;;;;;22.05;65.28;95692.81;5116179;28;20529;-77
2022/07/30 10:26:51;;;;;;;4.97;3.50;;;;;;;22.00;65.78;95685.03;5111430;28;20065;-77
2022/07/30 10:29:19;;;;;;;5.82;3.40;;;;;;;22.72;63.49;95678.97;5131001;27;20047;-78
2022/07/30 10:31:50;;;;;;;4.30;2.85;;;;;;;22.46;59.73;95693.63;5132279;27;20096;-77
2022/07/30 10:34:17;;;;;;;4.53;3.00;;;;;;;22.55;60.70;95686.19;5131196;28;20121;-78
2022/07/30 10:36:49;;;;;;;5.00;3.10;;;;;;;22.94;58.68;95686.44;5111474;28;20164;-78
2022/07/30 10:39:24;;;;;;;5.75;3.53;;;;;;;23.32;57.32;95690.47;5117227;28;20070;-77
2022/07/30 10:42:17;;;;;;;4.68;3.28;;;;;;;23.46;58.55;95684.66;5118103;28;20035;-79
2022/07/30 10:44:58;;;;;;;6.07;2.97;;;;;;;23.21;56.51;95692.09;5131272;28;20039;-79
2022/07/30 10:47:25;;;;;;;4.50;3.08;;;;;;;22.99;56.09;95688.88;5131615;28;20066;-79
2022/07/30 10:50:08;;;;;;;5.93;3.10;;;;;;;23.72;56.31;95695.97;5130738;28;20042;-78
2022/07/30 10:52:44;;;;;;;6.32;3.33;;;;;;;23.83;62.53;95691.59;5122960;28;20042;-79
2022/07/30 10:55:14;;;;;;;6.57;3.50;;;;;;;23.92;57.75;95689.53;5098194;28;20036;-79
2022/07/30 10:58:01;;;;;;;4.75;3.25;;;;;;;24.35;54.08;95695.81;5092960;28;20043;-80
2022/07/30 11:00:29;;;;;;;5.47;3.35;;;;;;;23.80;53.84;95697.69;5117451;28;20051;-79
2022/07/30 11:03:14;;;;;;;5.72;2.80;;;;;;;23.57;55.64;95687.56;5112820;28;20548;-80
2022/07/30 11:05:40;;;;;;;5.72;3.05;;;;;;;24.32;51.52;95696.50;5123697;28;20092;-78
2022/07/30 11:08:27;;;;;;;5.68;3.10;;;;;;;24.84;50.21;95699.03;5129417;28;20532;-80
2022/07/30 11:10:53;;;;;;;7.28;3.20;;;;;;;25.02;49.10;95694.75;5110160;28;20039;-77
2022/07/30 11:13:47;;;;;;;4.28;3.10;;;;;;;24.80;51.02;95682.06;5127556;28;20039;-78
2022/07/30 11:16:14;;;;;;;5.05;3.20;;;;;;;24.84;48.61;95685.56;5121314;28;20039;-77
2022/07/30 11:19:04;;;;;;;4.18;3.10;;;;;;;24.58;49.14;95687.00;5120493;28;20603;-80
2022/07/30 11:21:31;;;;;;;5.13;3.05;;;;;;;23.87;52.21;95692.50;5122939;28;20042;-78
2022/07/30 11:23:57;;;;;;;5.28;2.90;;;;;;;24.63;49.97;95688.66;5101988;28;20216;-77
2022/07/30 11:26:38;;;;;;;5.75;3.40;;;;;;;24.67;48.88;95684.91;5099662;28;20079;-78
2022/07/30 11:29:35;;;;;;;4.95;3.17;;;;;;;24.21;52.88;95687.44;5118460;28;20043;-78
2022/07/30 11:32:26;;;;;;;5.75;3.08;;;;;;;24.11;51.97;95682.63;5129982;27;20062;-78